Time;durP1;ratioP1;P1;durP2;ratioP2;P2;SDS_P1;SDS_P2;PMS_P1;PMS_P2;Temp;Humidity;BMP_temperature;BMP_pressure;BME280_temperature;BME280_humidity;BME280_pressure;Samples;Min_cycle;Max_cycle;Signal;HPM_P1;HPM_P2
2022/09/25 00:00:58;;;;;;;33.90;28.38;;;10.30;99.90;;;;;;2097031;28;20470;-69
2022/09/25 00:01:58;;;;;;;32.72;28.25;;;10.30;99.90;;;;;;2096336;28;20048;-69
2022/09/25 00:02:59;;;;;;;32.63;28.30;;;10.30;99.90;;;;;;2096865;28;20060;-69
2022/09/25 00:04:00;;;;;;;32.92;27.27;;;10.30;99.90;;;;;;2096683;28;20028;-69
2022/09/25 00:05:01;;;;;;;31.02;27.35;;;10.30;99.90;;;;;;2098172;28;20104;-69
2022/09/25 00:06:11;;;;;;;32.15;26.52;;;10.30;99.90;;;;;;2098520;28;20529;-71
2022/09/25 00:07:12;;;;;;;31.35;26.90;;;10.30;99.90;;;;;;2096959;28;20027;-68
2022/09/25 00:08:15;;;;;;;32.53;26.75;;;10.30;99.90;;;;;;2097699;28;20032;-68
2022/09/25 00:09:19;;;;;;;29.58;25.63;;;10.30;99.90;;;;;;2098019;28;20104;-69
2022/09/25 00:10:20;;;;;;;32.13;25.10;;;10.30;99.90;;;;;;2097641;28;20020;-69
2022/09/25 00:11:27;;;;;;;27.67;24.17;;;10.30;99.90;;;;;;2097353;28;20088;-68
2022/09/25 00:12:28;;;;;;;28.25;23.40;;;10.30;99.90;;;;;;2097468;28;20107;-68
2022/09/25 00:13:28;;;;;;;27.27;23.33;;;10.30;99.90;;;;;;2098924;28;20029;-69
2022/09/25 00:14:29;;;;;;;26.85;22.70;;;10.40;99.90;;;;;;2104655;28;20028;-69
2022/09/25 00:15:30;;;;;;;28.50;22.63;;;10.40;99.90;;;;;;2098016;28;20036;-69
2022/09/25 00:16:31;;;;;;;29.23;22.98;;;10.30;99.90;;;;;;2105585;28;20131;-69
2022/09/25 00:17:32;;;;;;;26.65;22.35;;;10.40;99.90;;;;;;2096293;28;20040;-70
2022/09/25 00:19:52;;;;;;;25.65;21.10;;;10.30;99.90;;;;;;2105414;28;20149;-69
2022/09/25 00:21:00;;;;;;;25.73;20.33;;;10.40;99.90;;;;;;2101668;28;20115;-69
2022/09/25 00:22:00;;;;;;;24.67;20.15;;;10.40;99.90;;;;;;2101972;28;20030;-69
2022/09/25 00:23:01;;;;;;;23.23;20.25;;;10.40;99.90;;;;;;2100023;28;20449;-69
2022/09/25 00:24:08;;;;;;;24.35;20.27;;;10.40;99.90;;;;;;2102091;28;20020;-69
2022/09/25 00:25:14;;;;;;;24.15;20.08;;;10.50;99.90;;;;;;2105370;28;20027;-69
2022/09/25 00:26:15;;;;;;;25.17;20.33;;;10.50;99.90;;;;;;2105213;28;20073;-69
2022/09/25 00:27:18;;;;;;;22.58;19.70;;;10.50;99.90;;;;;;2105200;28;20032;-68
2022/09/25 00:28:18;;;;;;;23.95;19.30;;;10.50;99.90;;;;;;2105257;28;20546;-69
2022/09/25 00:29:19;;;;;;;22.88;19.35;;;10.50;99.90;;;;;;2105437;28;20028;-69
2022/09/25 00:30:20;;;;;;;25.02;19.23;;;10.50;99.90;;;;;;2105335;28;20058;-69
2022/09/25 00:31:23;;;;;;;23.73;19.60;;;10.60;99.90;;;;;;2105067;28;20119;-69
2022/09/25 00:32:24;;;;;;;23.25;18.58;;;10.60;99.90;;;;;;2105516;28;20016;-69
2022/09/25 00:33:24;;;;;;;21.38;18.20;;;10.60;99.90;;;;;;2105241;28;20032;-69
2022/09/25 00:34:25;;;;;;;20.75;18.15;;;10.60;99.90;;;;;;2105565;28;20023;-68
2022/09/25 00:35:26;;;;;;;23.20;18.48;;;10.60;99.90;;;;;;2105354;28;20513;-69
2022/09/25 00:36:28;;;;;;;22.33;18.08;;;10.60;99.90;;;;;;2105326;28;20024;-69
2022/09/25 00:37:28;;;;;;;20.40;17.77;;;10.60;99.90;;;;;;2105376;28;20020;-69
2022/09/25 00:38:30;;;;;;;21.98;18.25;;;10.60;99.90;;;;;;2105100;28;20107;-70
2022/09/25 00:39:32;;;;;;;20.80;18.17;;;10.60;99.90;;;;;;2104975;28;20044;-69
2022/09/25 00:40:32;;;;;;;21.70;18.33;;;10.60;99.90;;;;;;2091343;28;20036;-70
2022/09/25 00:41:33;;;;;;;20.38;17.92;;;10.60;99.90;;;;;;2103420;28;20103;-69
2022/09/25 00:42:35;;;;;;;21.08;17.55;;;10.60;99.90;;;;;;2089543;28;20137;-69
2022/09/25 00:43:36;;;;;;;20.08;17.60;;;10.60;99.90;;;;;;2088007;28;20479;-69
2022/09/25 00:44:45;;;;;;;20.50;17.85;;;10.60;99.90;;;;;;2096337;28;20510;-69
2022/09/25 00:45:46;;;;;;;21.48;17.50;;;10.60;99.90;;;;;;2105119;28;20031;-69
2022/09/25 00:46:47;;;;;;;19.92;17.55;;;10.60;99.90;;;;;;2101417;28;20509;-69
2022/09/25 00:47:59;;;;;;;20.77;17.80;;;10.60;99.90;;;;;;2096701;28;20024;-69
2022/09/25 00:49:21;;;;;;;21.98;18.00;;;10.60;99.90;;;;;;2079503;28;20030;-69
2022/09/25 00:50:36;;;;;;;19.63;17.30;;;10.50;99.90;;;;;;2085330;28;20044;-69
2022/09/25 00:51:44;;;;;;;20.30;17.70;;;10.50;99.90;;;;;;2096372;28;20473;-69
2022/09/25 00:52:45;;;;;;;19.35;17.30;;;10.50;99.90;;;;;;2095801;28;20027;-69
2022/09/25 00:53:47;;;;;;;20.20;17.25;;;10.50;99.90;;;;;;2096242;28;20028;-70
2022/09/25 00:54:52;;;;;;;20.25;17.10;;;10.50;99.90;;;;;;2099850;28;20573;-69
2022/09/25 00:55:54;;;;;;;20.00;17.27;;;10.50;99.90;;;;;;2096899;28;20106;-69
2022/09/25 00:56:57;;;;;;;19.17;17.08;;;10.50;99.90;;;;;;2087932;28;20025;-70
2022/09/25 00:58:00;;;;;;;19.67;16.58;;;10.50;99.90;;;;;;2088323;28;20071;-69
2022/09/25 00:59:01;;;;;;;18.83;16.23;;;10.50;99.90;;;;;;2096886;28;20426;-69
2022/09/25 01:00:10;;;;;;;18.55;16.35;;;10.50;99.90;;;;;;2096834;28;20111;-69
2022/09/25 01:01:11;;;;;;;19.55;16.92;;;10.50;99.90;;;;;;2096966;28;20036;-69
2022/09/25 01:02:23;;;;;;;20.30;17.33;;;10.60;99.90;;;;;;2096625;28;20103;-70
2022/09/25 01:03:26;;;;;;;18.70;16.50;;;10.60;99.90;;;;;;2096994;28;20817;-69
2022/09/25 01:04:32;;;;;;;18.55;16.00;;;10.60;99.90;;;;;;2096918;28;20017;-69
2022/09/25 01:05:37;;;;;;;21.42;16.88;;;10.60;99.90;;;;;;2096753;28;20047;-69
2022/09/25 01:06:38;;;;;;;18.60;16.15;;;10.60;99.90;;;;;;2096586;28;20025;-69
2022/09/25 01:07:41;;;;;;;19.42;16.25;;;10.60;99.90;;;;;;2096560;28;20028;-69
2022/09/25 01:08:44;;;;;;;20.23;16.35;;;10.60;99.90;;;;;;2096637;28;20114;-69
2022/09/25 01:09:45;;;;;;;19.58;17.02;;;10.70;99.90;;;;;;2099576;28;20047;-69
2022/09/25 01:10:46;;;;;;;18.00;16.05;;;10.70;99.90;;;;;;2105077;28;20020;-69
2022/09/25 01:11:46;;;;;;;18.73;16.23;;;10.70;99.90;;;;;;2101156;28;20519;-69
2022/09/25 01:12:49;;;;;;;18.80;16.35;;;10.70;99.90;;;;;;2096543;28;20028;-69
2022/09/25 01:13:54;;;;;;;18.05;15.93;;;10.70;99.90;;;;;;2096586;28;20040;-69
2022/09/25 01:14:56;;;;;;;19.88;16.23;;;10.70;99.90;;;;;;2096652;28;20025;-69
2022/09/25 01:16:02;;;;;;;18.50;15.45;;;10.80;99.90;;;;;;2096662;28;20017;-69
2022/09/25 01:17:19;;;;;;;19.48;16.10;;;10.80;99.90;;;;;;2093620;28;20032;-69
2022/09/25 01:18:38;;;;;;;20.75;16.67;;;10.80;99.90;;;;;;2103887;28;20016;-69
2022/09/25 01:20:13;;;;;;;17.67;15.77;;;10.80;99.90;;;;;;2096037;28;20035;-69
2022/09/25 01:21:54;;;;;;;18.77;15.80;;;10.80;99.90;;;;;;2092169;28;20062;-69
2022/09/25 01:23:08;;;;;;;;;;;10.80;99.90;;;;;;2068502;28;20065;-69
2022/09/25 01:24:18;;;;;;;19.52;16.00;;;10.80;99.90;;;;;;2074419;28;19913;-69
2022/09/25 01:25:47;;;;;;;18.52;15.27;;;10.80;99.90;;;;;;2105070;28;20107;-69
2022/09/25 01:27:18;;;;;;;19.23;15.70;;;10.80;99.90;;;;;;2104683;28;20092;-68
2022/09/25 01:28:37;;;;;;;19.70;16.88;;;10.80;99.90;;;;;;2095584;28;20674;-70
2022/09/25 01:29:56;;;;;;;21.05;16.48;;;10.80;99.90;;;;;;2098466;28;20033;-69
2022/09/25 01:31:02;;;;;;;18.88;16.38;;;10.80;99.90;;;;;;2104701;28;20028;-69
2022/09/25 01:32:16;;;;;;;19.17;15.95;;;10.80;99.90;;;;;;2104631;28;20028;-69
2022/09/25 01:33:23;;;;;;;18.38;15.95;;;10.80;99.90;;;;;;2104837;28;20462;-70
2022/09/25 01:34:37;;;;;;;19.08;15.90;;;10.80;99.90;;;;;;2096054;28;20055;-70
2022/09/25 01:36:00;;;;;;;19.60;16.40;;;10.80;99.90;;;;;;2097403;28;20032;-69
2022/09/25 01:37:14;;;;;;;20.65;16.30;;;10.90;99.90;;;;;;2089768;28;20040;-69
2022/09/25 01:38:24;;;;;;;18.63;16.27;;;10.90;99.90;;;;;;2090388;28;20480;-69
2022/09/25 01:39:40;;;;;;;17.35;15.05;;;10.90;99.90;;;;;;2088195;28;20056;-69
2022/09/25 01:41:19;;;;;;;17.60;15.23;;;10.90;99.90;;;;;;2088172;28;20037;-69
2022/09/25 01:42:27;;;;;;;17.48;14.75;;;10.90;99.90;;;;;;2074453;28;20048;-69
2022/09/25 01:43:47;;;;;;;18.75;15.15;;;10.90;99.90;;;;;;2079117;28;20052;-69
2022/09/25 01:45:02;;;;;;;17.63;15.20;;;11.00;99.90;;;;;;2079349;28;20049;-69
2022/09/25 01:46:17;;;;;;;18.33;15.70;;;11.00;99.90;;;;;;2081324;28;20271;-69
2022/09/25 01:47:26;;;;;;;18.45;15.65;;;11.00;99.90;;;;;;2095426;28;20016;-69
2022/09/25 01:48:31;;;;;;;17.48;15.60;;;11.00;99.90;;;;;;2096092;28;20051;-70
2022/09/25 01:49:41;;;;;;;17.55;15.13;;;11.00;99.90;;;;;;2096057;28;20024;-69
2022/09/25 01:50:57;;;;;;;20.33;15.90;;;11.00;99.90;;;;;;2096053;28;20040;-69
2022/09/25 01:52:03;;;;;;;17.02;14.90;;;11.00;99.90;;;;;;2098069;28;20028;-69
2022/09/25 01:53:11;;;;;;;18.85;15.82;;;11.00;99.90;;;;;;2096246;28;20036;-69
2022/09/25 01:54:21;;;;;;;17.05;14.98;;;11.00;99.90;;;;;;2087384;28;20041;-69
2022/09/25 01:55:27;;;;;;;19.50;15.73;;;11.00;99.90;;;;;;2088904;28;20033;-69
2022/09/25 01:56:35;;;;;;;18.17;15.00;;;11.00;99.90;;;;;;2096431;28;20128;-69
2022/09/25 01:58:16;;;;;;;17.70;15.38;;;11.00;99.90;;;;;;2096605;28;20033;-69
2022/09/25 01:59:29;;;;;;;18.98;14.88;;;11.00;99.90;;;;;;2074686;28;20043;-69
2022/09/25 02:00:34;;;;;;;17.75;15.05;;;11.00;99.90;;;;;;2096427;28;20763;-69
2022/09/25 02:01:39;;;;;;;16.92;15.10;;;11.00;99.90;;;;;;2096064;28;20097;-69
2022/09/25 02:02:48;;;;;;;19.73;14.82;;;11.00;99.90;;;;;;2096282;28;20039;-68
2022/09/25 02:03:58;;;;;;;17.02;14.52;;;11.00;99.90;;;;;;2096318;28;20090;-69
2022/09/25 02:05:10;;;;;;;15.90;14.20;;;11.00;99.90;;;;;;2079185;28;20523;-69
2022/09/25 02:06:16;;;;;;;18.25;14.73;;;11.10;99.90;;;;;;2082473;28;20427;-69
2022/09/25 02:07:22;;;;;;;17.63;15.02;;;11.00;99.90;;;;;;2103849;28;20028;-69
2022/09/25 02:08:34;;;;;;;17.67;14.52;;;11.10;99.90;;;;;;2088206;28;20021;-69
2022/09/25 02:09:46;;;;;;;17.20;14.38;;;11.10;99.90;;;;;;2104638;28;20031;-70
2022/09/25 02:10:55;;;;;;;16.85;14.60;;;11.00;99.90;;;;;;2104788;28;20020;-69
2022/09/25 02:12:01;;;;;;;17.98;14.60;;;11.10;99.90;;;;;;2104470;28;20038;-69
2022/09/25 02:13:12;;;;;;;17.00;13.98;;;11.00;99.90;;;;;;2103925;28;20071;-69
2022/09/25 02:14:26;;;;;;;17.10;13.93;;;11.10;99.90;;;;;;2103424;28;20032;-69
2022/09/25 02:15:33;;;;;;;17.60;14.32;;;11.10;99.90;;;;;;2095830;28;20020;-68
2022/09/25 02:16:37;;;;;;;17.38;15.10;;;11.10;99.90;;;;;;2096526;28;20036;-68
2022/09/25 02:20:35;;;;;;;16.02;13.55;;;11.10;99.90;;;;;;2104569;28;20032;-68
2022/09/25 02:21:49;;;;;;;16.80;14.10;;;11.10;99.90;;;;;;2104347;28;20028;-69
2022/09/25 02:22:52;;;;;;;15.88;14.18;;;11.10;99.90;;;;;;2104415;28;20490;-71
2022/09/25 02:24:20;;;;;;;17.00;14.23;;;11.10;99.90;;;;;;2104586;28;20108;-69
2022/09/25 02:25:34;;;;;;;17.45;15.32;;;11.10;99.90;;;;;;2095533;28;20025;-69
2022/09/25 02:26:37;;;;;;;17.55;14.23;;;11.10;99.90;;;;;;2095710;28;20610;-69
2022/09/25 02:27:37;;;;;;;19.33;14.35;;;11.10;99.90;;;;;;2095643;28;20108;-69
2022/09/25 02:28:38;;;;;;;17.38;14.20;;;11.10;99.90;;;;;;2095711;28;20040;-69
2022/09/25 02:29:39;;;;;;;17.05;14.00;;;11.10;99.90;;;;;;2104598;28;20099;-69
2022/09/25 02:30:40;;;;;;;16.88;13.75;;;11.10;99.90;;;;;;2095444;28;20115;-69
2022/09/25 02:31:46;;;;;;;18.85;13.98;;;11.10;99.90;;;;;;2095271;28;20020;-69
2022/09/25 02:32:46;;;;;;;15.98;14.18;;;11.10;99.90;;;;;;2101717;28;20024;-69
2022/09/25 02:33:49;;;;;;;18.00;15.07;;;11.10;99.90;;;;;;2092156;28;20029;-69
2022/09/25 02:34:50;;;;;;;16.70;13.98;;;11.10;99.90;;;;;;2091177;28;20024;-68
2022/09/25 02:35:52;;;;;;;16.17;14.43;;;11.10;99.90;;;;;;2104529;28;20032;-68
2022/09/25 02:36:53;;;;;;;16.88;14.30;;;11.10;99.90;;;;;;2104783;28;20111;-69
2022/09/25 02:37:55;;;;;;;15.73;13.98;;;11.10;99.90;;;;;;2104623;28;20020;-69
2022/09/25 02:38:56;;;;;;;17.27;14.60;;;11.10;99.90;;;;;;2104335;28;20513;-68
2022/09/25 02:40:00;;;;;;;16.70;14.43;;;11.10;99.90;;;;;;2104649;28;20035;-68
2022/09/25 02:41:25;;;;;;;16.55;14.32;;;11.10;99.90;;;;;;2095809;28;20031;-69
2022/09/25 02:42:37;;;;;;;17.13;14.55;;;11.10;99.90;;;;;;2090458;28;20533;-68
2022/09/25 02:43:52;;;;;;;17.63;14.77;;;11.20;99.90;;;;;;2088801;28;20037;-69
2022/09/25 02:45:24;;;;;;;17.30;14.73;;;11.10;99.90;;;;;;2097709;28;20024;-69
2022/09/25 02:46:53;;;;;;;;;;;11.20;99.90;;;;;;2104609;28;20056;-68
2022/09/25 02:47:57;;;;;;;17.30;14.60;;;11.10;99.90;;;;;;2083699;28;19912;-69
2022/09/25 02:49:09;;;;;;;17.42;14.75;;;11.20;99.90;;;;;;2097613;28;20471;-69
2022/09/25 02:50:25;;;;;;;16.95;14.15;;;11.10;99.90;;;;;;2097814;28;20032;-69
2022/09/25 02:51:33;;;;;;;17.38;14.43;;;11.10;99.90;;;;;;2097827;28;20645;-69
2022/09/25 02:52:57;;;;;;;16.85;13.93;;;11.10;99.90;;;;;;2105832;28;20085;-68
2022/09/25 02:54:20;;;;;;;16.30;13.70;;;11.20;99.90;;;;;;2106423;28;20695;-69
2022/09/25 02:55:41;;;;;;;15.38;13.73;;;11.10;99.90;;;;;;2106350;28;20154;-68
2022/09/25 02:56:52;;;;;;;17.73;13.70;;;11.20;99.90;;;;;;2106112;28;20036;-69
2022/09/25 02:58:03;;;;;;;16.73;13.88;;;11.20;99.90;;;;;;2097060;28;20490;-68
2022/09/25 02:59:08;;;;;;;16.60;13.85;;;11.20;99.90;;;;;;2098434;28;20024;-68
2022/09/25 03:00:10;;;;;;;15.98;13.75;;;11.20;99.90;;;;;;2097148;28;20033;-68
2022/09/25 03:01:14;;;;;;;15.68;13.80;;;11.20;99.90;;;;;;2089137;28;20044;-68
2022/09/25 03:02:16;;;;;;;15.60;13.25;;;11.20;99.90;;;;;;2093100;28;20435;-70
2022/09/25 03:03:20;;;;;;;16.15;13.30;;;11.20;99.90;;;;;;2105293;28;20039;-68
2022/09/25 03:04:22;;;;;;;15.20;13.60;;;11.20;99.90;;;;;;2097957;28;20016;-68
2022/09/25 03:05:24;;;;;;;16.05;13.77;;;11.20;99.90;;;;;;2089355;28;20021;-68
2022/09/25 03:06:26;;;;;;;15.30;13.32;;;11.20;99.90;;;;;;2089442;28;20033;-68
2022/09/25 03:07:27;;;;;;;14.50;12.63;;;11.20;99.90;;;;;;2089467;28;20053;-68
2022/09/25 03:08:37;;;;;;;16.33;13.60;;;11.20;99.90;;;;;;2089436;28;20051;-68
2022/09/25 03:09:40;;;;;;;;;;;11.20;99.90;;;;;;2094405;28;20506;-69
2022/09/25 03:10:45;;;;;;;15.48;13.10;;;11.20;99.90;;;;;;2106230;28;19943;-68
2022/09/25 03:11:45;;;;;;;15.65;13.25;;;11.20;99.90;;;;;;2088482;28;20021;-68
2022/09/25 03:12:46;;;;;;;14.32;12.45;;;11.20;99.90;;;;;;2088696;28;20515;-67
2022/09/25 03:13:58;;;;;;;13.93;12.43;;;11.20;99.90;;;;;;2097097;28;20029;-69
2022/09/25 03:14:59;;;;;;;15.40;12.48;;;11.20;99.90;;;;;;2105767;28;20119;-68
2022/09/25 03:16:05;;;;;;;14.98;13.25;;;11.20;99.90;;;;;;2106104;28;20024;-68
2022/09/25 03:17:07;;;;;;;14.85;13.10;;;11.20;99.90;;;;;;2105632;28;20028;-68
2022/09/25 03:18:08;;;;;;;16.48;12.82;;;11.20;99.90;;;;;;2105914;28;20025;-68
2022/09/25 03:19:09;;;;;;;14.82;12.50;;;11.20;99.90;;;;;;2105799;28;20028;-68
2022/09/25 03:20:09;;;;;;;14.93;12.73;;;11.20;99.90;;;;;;2105856;28;20082;-68
2022/09/25 03:21:10;;;;;;;14.68;13.00;;;11.20;99.90;;;;;;2096887;28;20063;-68
2022/09/25 03:22:11;;;;;;;14.43;12.85;;;11.20;99.90;;;;;;2096634;28;20032;-68
2022/09/25 03:23:12;;;;;;;15.85;13.30;;;11.10;99.90;;;;;;2096777;28;20047;-69
2022/09/25 03:24:14;;;;;;;14.95;12.80;;;11.10;99.90;;;;;;2096826;28;20087;-69
2022/09/25 03:25:15;;;;;;;14.88;13.27;;;11.20;99.90;;;;;;2105814;28;20525;-68
2022/09/25 03:26:15;;;;;;;14.70;13.13;;;11.10;99.90;;;;;;2105824;28;20035;-69
2022/09/25 03:27:16;;;;;;;14.27;12.77;;;11.20;99.90;;;;;;2105827;28;20035;-69
2022/09/25 03:28:17;;;;;;;14.70;12.90;;;11.10;99.90;;;;;;2096792;28;20115;-68
2022/09/25 03:29:17;;;;;;;14.75;12.75;;;11.20;99.90;;;;;;2087408;28;20033;-69
2022/09/25 03:30:18;;;;;;;16.13;13.02;;;11.10;99.90;;;;;;2088945;28;20021;-69
2022/09/25 03:31:19;;;;;;;15.90;13.23;;;11.10;99.90;;;;;;2105064;28;20030;-68
2022/09/25 03:32:20;;;;;;;15.60;13.52;;;11.10;99.90;;;;;;2105743;28;20838;-69
2022/09/25 03:33:21;;;;;;;15.35;13.73;;;11.10;99.90;;;;;;2105954;28;20034;-69
2022/09/25 03:34:22;;;;;;;14.85;13.10;;;11.10;99.90;;;;;;2096800;28;20786;-69
2022/09/25 03:35:22;;;;;;;16.52;13.50;;;11.10;99.90;;;;;;2097055;28;20033;-69
2022/09/25 03:36:25;;;;;;;15.68;13.52;;;11.10;99.90;;;;;;2097193;28;20029;-69
2022/09/25 03:37:26;;;;;;;15.85;13.13;;;11.20;99.90;;;;;;2097213;28;20033;-69
2022/09/25 03:38:27;;;;;;;14.80;13.20;;;11.10;99.90;;;;;;2105578;28;20116;-69
2022/09/25 03:39:27;;;;;;;15.45;13.50;;;11.10;99.90;;;;;;2106075;28;20490;-69
2022/09/25 03:40:28;;;;;;;15.70;13.43;;;11.10;99.90;;;;;;2105804;28;20482;-68
2022/09/25 03:41:30;;;;;;;15.95;13.27;;;11.10;99.90;;;;;;2105686;28;20016;-68
2022/09/25 03:42:31;;;;;;;15.70;13.30;;;11.10;99.90;;;;;;2105686;28;20028;-69
2022/09/25 03:43:35;;;;;;;16.05;13.10;;;11.10;99.90;;;;;;2100719;28;20213;-69
2022/09/25 03:44:35;;;;;;;16.42;13.93;;;11.10;99.90;;;;;;2097737;28;20032;-69
2022/09/25 03:45:36;;;;;;;16.42;13.75;;;11.10;99.90;;;;;;2097719;28;20126;-69
2022/09/25 03:46:37;;;;;;;16.05;14.35;;;11.10;99.90;;;;;;2097402;28;20041;-69
2022/09/25 03:47:37;;;;;;;15.32;13.73;;;11.10;99.90;;;;;;2097627;28;20035;-70
2022/09/25 03:48:39;;;;;;;16.15;14.15;;;11.10;99.90;;;;;;2097296;28;20024;-69
2022/09/25 03:49:40;;;;;;;15.68;13.40;;;11.10;99.90;;;;;;2097807;28;20024;-69
2022/09/25 03:50:40;;;;;;;15.13;13.52;;;11.10;99.90;;;;;;2097595;28;20550;-68
2022/09/25 03:51:41;;;;;;;14.63;13.02;;;11.10;99.90;;;;;;2098217;28;20108;-69
2022/09/25 03:52:42;;;;;;;14.60;13.10;;;11.10;99.90;;;;;;2105963;28;20043;-69
2022/09/25 03:53:43;;;;;;;14.32;12.82;;;11.10;99.90;;;;;;2105985;28;20028;-69
2022/09/25 03:54:43;;;;;;;14.30;12.75;;;11.10;99.90;;;;;;2105700;28;20123;-69
2022/09/25 03:55:47;;;;;;;13.77;12.05;;;11.10;99.90;;;;;;2105695;28;20032;-70
2022/09/25 03:56:48;;;;;;;14.15;12.65;;;11.10;99.90;;;;;;2105542;28;20024;-70
2022/09/25 03:57:49;;;;;;;14.57;12.52;;;11.10;99.90;;;;;;2105703;28;20024;-69
2022/09/25 03:58:53;;;;;;;14.50;12.93;;;11.10;99.90;;;;;;2101502;28;20616;-69
2022/09/25 03:59:53;;;;;;;13.65;12.23;;;11.10;99.90;;;;;;2100642;28;20032;-69
2022/09/25 04:00:56;;;;;;;14.80;12.98;;;11.10;99.90;;;;;;2101330;28;20020;-70
2022/09/25 04:01:57;;;;;;;13.95;12.52;;;11.10;99.90;;;;;;2096379;28;20038;-69
2022/09/25 04:02:58;;;;;;;14.10;12.60;;;11.10;99.90;;;;;;2096463;28;20115;-69
2022/09/25 04:04:00;;;;;;;13.85;12.45;;;11.10;99.90;;;;;;2096506;28;20028;-69
2022/09/25 04:05:02;;;;;;;14.32;12.82;;;11.10;99.90;;;;;;2096828;28;20065;-69
2022/09/25 04:06:05;;;;;;;14.60;13.05;;;11.10;99.90;;;;;;2100849;28;20024;-69
2022/09/25 04:07:05;;;;;;;15.20;12.57;;;11.10;99.90;;;;;;2102800;28;20020;-69
2022/09/25 04:08:06;;;;;;;13.40;12.00;;;11.10;99.90;;;;;;2099292;28;20017;-69
2022/09/25 04:09:07;;;;;;;14.18;12.63;;;11.10;99.90;;;;;;2103236;28;20059;-69
2022/09/25 04:10:08;;;;;;;13.98;12.48;;;11.10;99.90;;;;;;2096409;28;20028;-69
2022/09/25 04:11:09;;;;;;;13.90;12.40;;;11.10;99.90;;;;;;2096742;28;20094;-69
2022/09/25 04:12:10;;;;;;;14.18;12.02;;;11.10;99.90;;;;;;2105133;28;20027;-69
2022/09/25 04:13:11;;;;;;;14.27;12.77;;;11.10;99.90;;;;;;2105505;28;20028;-69
2022/09/25 04:14:13;;;;;;;14.05;12.52;;;11.00;99.90;;;;;;2105486;28;20044;-70
2022/09/25 04:15:14;;;;;;;14.30;12.68;;;11.00;99.90;;;;;;2105404;28;20054;-69
2022/09/25 04:16:15;;;;;;;14.07;12.50;;;11.00;99.90;;;;;;2105549;28;20024;-69
2022/09/25 04:17:16;;;;;;;14.30;12.48;;;11.00;99.90;;;;;;2105403;28;20024;-69
2022/09/25 04:18:17;;;;;;;15.07;12.75;;;11.00;99.90;;;;;;2105282;28;20415;-71
2022/09/25 04:19:18;;;;;;;14.07;12.60;;;11.00;99.90;;;;;;2105349;28;20039;-67
2022/09/25 04:20:19;;;;;;;13.55;12.15;;;11.00;99.90;;;;;;2105454;28;20536;-67
2022/09/25 04:21:20;;;;;;;14.50;12.32;;;11.00;99.90;;;;;;2105474;28;20039;-69
2022/09/25 04:22:20;;;;;;;15.60;13.30;;;11.00;99.90;;;;;;2105659;28;20059;-69
2022/09/25 04:23:21;;;;;;;14.93;13.10;;;11.00;99.90;;;;;;2105508;28;20066;-69
2022/09/25 04:25:41;;;;;;;14.63;12.75;;;11.00;99.90;;;;;;2093804;28;20079;-67
2022/09/25 04:26:41;;;;;;;15.18;13.38;;;11.00;99.90;;;;;;2093669;28;20104;-69
2022/09/25 04:27:45;;;;;;;14.63;12.25;;;11.00;99.90;;;;;;2090942;28;20077;-69
2022/09/25 04:28:45;;;;;;;16.27;13.45;;;11.00;99.90;;;;;;2105169;28;20522;-69
2022/09/25 04:29:47;;;;;;;15.10;13.50;;;11.10;99.90;;;;;;2105142;28;20020;-69
2022/09/25 04:30:48;;;;;;;14.95;13.25;;;11.10;99.90;;;;;;2105290;28;20479;-69
2022/09/25 04:33:44;;;;;;;15.43;13.40;;;11.00;99.90;;;;;;2105113;28;20024;-69
2022/09/25 04:34:29;;;;;;;14.80;12.75;;;11.10;99.90;;;;;;2105075;28;20035;-69
2022/09/25 04:35:30;;;;;;;16.08;13.30;;;11.10;99.90;;;;;;2105271;28;20459;-70
2022/09/25 04:36:31;;;;;;;14.63;13.02;;;11.00;99.90;;;;;;2105238;28;20088;-70
2022/09/25 04:37:31;;;;;;;15.88;12.90;;;11.00;99.90;;;;;;2105290;28;20054;-69
2022/09/25 04:38:32;;;;;;;15.90;13.20;;;11.00;99.90;;;;;;2104924;28;20129;-70
2022/09/25 04:39:33;;;;;;;16.65;13.35;;;11.00;99.90;;;;;;2092891;28;20457;-70
2022/09/25 04:40:33;;;;;;;14.88;13.18;;;11.00;99.90;;;;;;2088000;28;20029;-70
2022/09/25 04:41:34;;;;;;;15.48;12.80;;;11.00;99.90;;;;;;2096576;28;20368;-67
2022/09/25 04:42:35;;;;;;;15.18;12.98;;;11.00;99.90;;;;;;2088168;28;20051;-70
2022/09/25 04:43:35;;;;;;;14.88;13.00;;;11.00;99.90;;;;;;2087929;28;20040;-69
2022/09/25 04:44:36;;;;;;;16.70;13.63;;;11.00;99.90;;;;;;2097051;28;20039;-70
2022/09/25 04:45:37;;;;;;;14.82;13.15;;;11.00;99.90;;;;;;2097185;28;20031;-70
2022/09/25 04:46:37;;;;;;;15.48;13.38;;;11.10;99.90;;;;;;2096205;28;20471;-70
2022/09/25 04:47:38;;;;;;;14.15;12.57;;;11.10;99.90;;;;;;2087856;28;20152;-70
2022/09/25 04:48:42;;;;;;;16.88;13.27;;;11.10;99.90;;;;;;2087695;28;20056;-69
2022/09/25 04:49:43;;;;;;;17.45;14.18;;;11.10;99.90;;;;;;2096826;28;20043;-69
2022/09/25 04:50:50;;;;;;;16.75;14.65;;;11.10;99.90;;;;;;2096771;28;20021;-70
2022/09/25 04:51:51;;;;;;;19.10;14.23;;;11.10;99.90;;;;;;2098359;28;20038;-70
2022/09/25 04:52:52;;;;;;;16.80;13.10;;;11.10;99.90;;;;;;2105054;28;20032;-70
2022/09/25 04:53:52;;;;;;;15.20;12.80;;;11.10;99.90;;;;;;2105144;28;20040;-70
2022/09/25 04:54:53;;;;;;;15.77;13.38;;;11.10;99.90;;;;;;2103557;28;20658;-70
2022/09/25 04:55:58;;;;;;;15.30;13.30;;;11.10;99.90;;;;;;2100534;28;20482;-70
2022/09/25 04:56:59;;;;;;;15.68;12.95;;;11.10;99.90;;;;;;2084884;28;20032;-68
2022/09/25 04:58:00;;;;;;;13.82;12.43;;;11.10;99.90;;;;;;2087866;28;20043;-70
2022/09/25 04:59:01;;;;;;;15.02;12.68;;;11.20;99.90;;;;;;2096020;28;20398;-71
2022/09/25 05:00:02;;;;;;;14.27;12.80;;;11.20;99.90;;;;;;2105072;28;20127;-70
2022/09/25 05:01:07;;;;;;;16.08;12.75;;;11.20;99.90;;;;;;2096036;28;20108;-71
2022/09/25 05:02:08;;;;;;;14.00;12.02;;;11.20;99.90;;;;;;2081216;28;20030;-69
2022/09/25 05:03:09;;;;;;;15.88;13.25;;;11.20;99.90;;;;;;2092382;28;20036;-69
2022/09/25 05:04:09;;;;;;;14.25;12.45;;;11.20;99.90;;;;;;2105024;28;20024;-68
2022/09/25 05:05:10;;;;;;;14.13;12.63;;;11.20;99.90;;;;;;2105058;28;20103;-69
2022/09/25 05:06:10;;;;;;;15.02;12.82;;;11.20;99.90;;;;;;2095920;28;20060;-69
2022/09/25 05:07:11;;;;;;;16.10;12.63;;;11.20;99.90;;;;;;2095898;28;20029;-69
2022/09/25 05:08:12;;;;;;;14.10;12.55;;;11.10;99.90;;;;;;2104919;28;20418;-69
2022/09/25 05:09:12;;;;;;;14.30;12.80;;;11.20;99.90;;;;;;2104886;28;20110;-69
2022/09/25 05:10:13;;;;;;;14.32;12.65;;;11.20;99.90;;;;;;2104754;28;20043;-69
2022/09/25 05:11:14;;;;;;;15.32;12.60;;;11.20;99.90;;;;;;2095939;28;20024;-69
2022/09/25 05:12:15;;;;;;;14.52;13.00;;;11.20;99.90;;;;;;2096038;28;20020;-68
2022/09/25 05:13:16;;;;;;;14.95;12.95;;;11.20;99.90;;;;;;2096081;28;20115;-69
2022/09/25 05:14:16;;;;;;;14.40;12.52;;;11.20;99.90;;;;;;2095899;28;20071;-69
2022/09/25 05:15:17;;;;;;;15.85;13.13;;;11.20;99.90;;;;;;2105210;28;20085;-68
2022/09/25 05:16:18;;;;;;;14.88;12.75;;;11.20;99.90;;;;;;2105107;28;20028;-69
2022/09/25 05:17:19;;;;;;;13.82;12.32;;;11.20;99.90;;;;;;2105094;28;20544;-69
2022/09/25 05:18:21;;;;;;;15.35;12.95;;;11.20;99.90;;;;;;2095888;28;20028;-69
2022/09/25 05:19:22;;;;;;;14.30;12.18;;;11.20;99.90;;;;;;2088026;28;20040;-69
2022/09/25 05:20:23;;;;;;;14.05;12.52;;;11.20;99.90;;;;;;2087810;28;20029;-69
2022/09/25 05:21:24;;;;;;;14.80;12.75;;;11.20;99.90;;;;;;2090820;28;20028;-68
2022/09/25 05:22:25;;;;;;;14.05;12.32;;;11.20;99.90;;;;;;2095557;28;20522;-70
2022/09/25 05:23:25;;;;;;;14.30;12.80;;;11.20;99.90;;;;;;2087875;28;20037;-69
2022/09/25 05:24:26;;;;;;;15.45;12.98;;;11.20;99.90;;;;;;2105052;28;20110;-69
2022/09/25 05:25:26;;;;;;;14.75;12.32;;;11.20;99.90;;;;;;2104909;28;20020;-68
2022/09/25 05:26:29;;;;;;;13.50;12.10;;;11.20;99.90;;;;;;2104832;28;20043;-69
2022/09/25 05:27:32;;;;;;;14.18;12.68;;;11.20;99.90;;;;;;2104685;28;20031;-69
2022/09/25 05:28:33;;;;;;;13.77;12.20;;;11.20;99.90;;;;;;2104965;28;20024;-68
2022/09/25 05:29:34;;;;;;;14.38;12.63;;;11.20;99.90;;;;;;2095705;28;20036;-69
2022/09/25 05:30:37;;;;;;;13.90;12.35;;;11.20;99.90;;;;;;2087565;28;20029;-69
2022/09/25 05:31:38;;;;;;;14.10;12.50;;;11.30;99.90;;;;;;2096055;28;20040;-70
2022/09/25 05:32:38;;;;;;;13.95;12.32;;;11.30;99.90;;;;;;2104861;28;20783;-70
2022/09/25 05:33:39;;;;;;;13.77;12.05;;;11.30;99.90;;;;;;2104759;28;20028;-69
2022/09/25 05:34:40;;;;;;;13.32;11.93;;;11.30;99.90;;;;;;2104991;28;20043;-69
2022/09/25 05:35:41;;;;;;;14.10;11.90;;;11.30;99.90;;;;;;2102772;28;20028;-70
2022/09/25 05:36:42;;;;;;;14.68;12.68;;;11.30;99.90;;;;;;2096347;28;20418;-70